sensor_id;sensor_type;location;lat;lon;timestamp;P1;durP1;ratioP1;P2;durP2;ratioP2
13432;SDS011;6789;47.678;9.158;2023-08-08T00:00:08;1.53;;;0.97;;
13432;SDS011;6789;47.678;9.158;2023-08-08T00:05:01;1.30;;;1.03;;
13432;SDS011;6789;47.678;9.158;2023-08-08T00:09:53;0.98;;;0.90;;
13432;SDS011;6789;47.678;9.158;2023-08-08T00:14:45;2.10;;;0.90;;
13432;SDS011;6789;47.678;9.158;2023-08-08T00:19:36;1.67;;;1.10;;
13432;SDS011;6789;47.678;9.158;2023-08-08T00:24:28;1.05;;;0.90;;
13432;SDS011;6789;47.678;9.158;2023-08-08T00:29:20;1.50;;;1.00;;
13432;SDS011;6789;47.678;9.158;2023-08-08T00:34:12;1.98;;;1.42;;
13432;SDS011;6789;47.678;9.158;2023-08-08T00:39:03;2.30;;;1.37;;
13432;SDS011;6789;47.678;9.158;2023-08-08T00:43:55;1.43;;;1.03;;
13432;SDS011;6789;47.678;9.158;2023-08-08T00:48:47;1.27;;;1.13;;
13432;SDS011;6789;47.678;9.158;2023-08-08T00:53:39;2.60;;;1.07;;
13432;SDS011;6789;47.678;9.158;2023-08-08T00:58:31;1.90;;;1.40;;
13432;SDS011;6789;47.678;9.158;2023-08-08T01:03:22;1.63;;;1.00;;
13432;SDS011;6789;47.678;9.158;2023-08-08T01:08:15;1.43;;;1.20;;
13432;SDS011;6789;47.678;9.158;2023-08-08T01:13:17;1.30;;;1.20;;
13432;SDS011;6789;47.678;9.158;2023-08-08T01:18:13;1.60;;;1.10;;
13432;SDS011;6789;47.678;9.158;2023-08-08T01:23:09;3.10;;;1.23;;
13432;SDS011;6789;47.678;9.158;2023-08-08T01:28:08;2.90;;;1.00;;
13432;SDS011;6789;47.678;9.158;2023-08-08T01:33:00;2.37;;;1.20;;
13432;SDS011;6789;47.678;9.158;2023-08-08T01:37:54;1.83;;;1.30;;
13432;SDS011;6789;47.678;9.158;2023-08-08T01:43:14;1.20;;;1.10;;
13432;SDS011;6789;47.678;9.158;2023-08-08T01:48:07;1.40;;;1.20;;
13432;SDS011;6789;47.678;9.158;2023-08-08T01:53:01;1.47;;;1.10;;
13432;SDS011;6789;47.678;9.158;2023-08-08T01:57:54;0.93;;;0.90;;
13432;SDS011;6789;47.678;9.158;2023-08-08T02:02:45;1.20;;;0.90;;
13432;SDS011;6789;47.678;9.158;2023-08-08T02:07:37;2.17;;;0.97;;
13432;SDS011;6789;47.678;9.158;2023-08-08T02:12:29;2.23;;;1.10;;
13432;SDS011;6789;47.678;9.158;2023-08-08T02:17:21;1.17;;;0.97;;
13432;SDS011;6789;47.678;9.158;2023-08-08T02:22:13;1.80;;;1.20;;
13432;SDS011;6789;47.678;9.158;2023-08-08T02:27:05;2.33;;;2.13;;
13432;SDS011;6789;47.678;9.158;2023-08-08T02:31:56;1.40;;;0.93;;
13432;SDS011;6789;47.678;9.158;2023-08-08T02:36:48;1.93;;;1.27;;
13432;SDS011;6789;47.678;9.158;2023-08-08T02:41:40;2.73;;;1.20;;
13432;SDS011;6789;47.678;9.158;2023-08-08T02:46:33;1.77;;;1.00;;
13432;SDS011;6789;47.678;9.158;2023-08-08T02:51:25;1.27;;;1.03;;
13432;SDS011;6789;47.678;9.158;2023-08-08T02:56:17;1.53;;;1.33;;
13432;SDS011;6789;47.678;9.158;2023-08-08T03:01:09;1.40;;;1.30;;
13432;SDS011;6789;47.678;9.158;2023-08-08T03:06:01;2.10;;;1.00;;
13432;SDS011;6789;47.678;9.158;2023-08-08T03:10:54;1.23;;;1.00;;
13432;SDS011;6789;47.678;9.158;2023-08-08T03:15:46;3.67;;;1.57;;
13432;SDS011;6789;47.678;9.158;2023-08-08T03:20:38;1.60;;;1.30;;
13432;SDS011;6789;47.678;9.158;2023-08-08T03:25:30;1.40;;;1.30;;
13432;SDS011;6789;47.678;9.158;2023-08-08T03:30:21;1.20;;;1.10;;
13432;SDS011;6789;47.678;9.158;2023-08-08T03:35:13;2.73;;;1.40;;
13432;SDS011;6789;47.678;9.158;2023-08-08T03:40:06;2.10;;;1.33;;
13432;SDS011;6789;47.678;9.158;2023-08-08T03:44:59;2.63;;;1.50;;
13432;SDS011;6789;47.678;9.158;2023-08-08T03:49:51;2.97;;;1.40;;
13432;SDS011;6789;47.678;9.158;2023-08-08T03:54:46;1.90;;;1.70;;
13432;SDS011;6789;47.678;9.158;2023-08-08T03:59:38;4.00;;;1.90;;
13432;SDS011;6789;47.678;9.158;2023-08-08T04:04:29;2.90;;;1.20;;
13432;SDS011;6789;47.678;9.158;2023-08-08T04:09:22;2.43;;;1.40;;
13432;SDS011;6789;47.678;9.158;2023-08-08T04:14:14;4.17;;;2.00;;
13432;SDS011;6789;47.678;9.158;2023-08-08T04:19:06;2.03;;;1.53;;
13432;SDS011;6789;47.678;9.158;2023-08-08T04:23:59;3.13;;;1.23;;
13432;SDS011;6789;47.678;9.158;2023-08-08T04:28:52;1.80;;;1.23;;
13432;SDS011;6789;47.678;9.158;2023-08-08T04:33:54;2.77;;;1.40;;
13432;SDS011;6789;47.678;9.158;2023-08-08T04:38:52;1.80;;;1.50;;
13432;SDS011;6789;47.678;9.158;2023-08-08T04:43:45;3.23;;;1.20;;
13432;SDS011;6789;47.678;9.158;2023-08-08T04:48:41;2.45;;;1.42;;
13432;SDS011;6789;47.678;9.158;2023-08-08T04:53:41;3.47;;;1.73;;
13432;SDS011;6789;47.678;9.158;2023-08-08T04:58:33;1.52;;;1.23;;
13432;SDS011;6789;47.678;9.158;2023-08-08T05:03:27;1.60;;;1.30;;
13432;SDS011;6789;47.678;9.158;2023-08-08T05:08:19;3.30;;;1.50;;
13432;SDS011;6789;47.678;9.158;2023-08-08T05:13:12;2.45;;;1.85;;
13432;SDS011;6789;47.678;9.158;2023-08-08T05:18:04;2.75;;;1.75;;
13432;SDS011;6789;47.678;9.158;2023-08-08T05:23:10;2.20;;;1.73;;
13432;SDS011;6789;47.678;9.158;2023-08-08T05:28:02;3.42;;;1.38;;
13432;SDS011;6789;47.678;9.158;2023-08-08T05:32:55;4.25;;;1.48;;
13432;SDS011;6789;47.678;9.158;2023-08-08T05:37:47;2.05;;;1.42;;
13432;SDS011;6789;47.678;9.158;2023-08-08T05:42:39;2.85;;;1.70;;
13432;SDS011;6789;47.678;9.158;2023-08-08T05:47:31;6.20;;;1.90;;
13432;SDS011;6789;47.678;9.158;2023-08-08T05:52:29;4.60;;;1.98;;
13432;SDS011;6789;47.678;9.158;2023-08-08T05:57:21;2.65;;;1.48;;
13432;SDS011;6789;47.678;9.158;2023-08-08T06:02:14;3.03;;;1.58;;
13432;SDS011;6789;47.678;9.158;2023-08-08T06:07:05;1.85;;;1.40;;
13432;SDS011;6789;47.678;9.158;2023-08-08T06:12:00;8.73;;;1.50;;
13432;SDS011;6789;47.678;9.158;2023-08-08T06:16:53;2.65;;;1.40;;
13432;SDS011;6789;47.678;9.158;2023-08-08T06:21:47;1.75;;;1.40;;
13432;SDS011;6789;47.678;9.158;2023-08-08T06:26:40;2.30;;;1.27;;
13432;SDS011;6789;47.678;9.158;2023-08-08T06:31:32;2.08;;;1.10;;
13432;SDS011;6789;47.678;9.158;2023-08-08T06:36:25;2.33;;;1.27;;
13432;SDS011;6789;47.678;9.158;2023-08-08T06:41:31;2.17;;;1.10;;
13432;SDS011;6789;47.678;9.158;2023-08-08T06:46:25;2.03;;;1.02;;
13432;SDS011;6789;47.678;9.158;2023-08-08T06:51:30;1.80;;;1.20;;
13432;SDS011;6789;47.678;9.158;2023-08-08T06:56:23;4.40;;;1.77;;
13432;SDS011;6789;47.678;9.158;2023-08-08T07:01:21;1.70;;;1.13;;
13432;SDS011;6789;47.678;9.158;2023-08-08T07:06:27;1.35;;;0.90;;
13432;SDS011;6789;47.678;9.158;2023-08-08T07:11:19;1.95;;;1.10;;
13432;SDS011;6789;47.678;9.158;2023-08-08T07:16:25;2.70;;;1.20;;
13432;SDS011;6789;47.678;9.158;2023-08-08T07:21:18;1.70;;;1.20;;
13432;SDS011;6789;47.678;9.158;2023-08-08T07:26:18;2.35;;;1.63;;
13432;SDS011;6789;47.678;9.158;2023-08-08T07:31:10;1.63;;;1.52;;
13432;SDS011;6789;47.678;9.158;2023-08-08T07:36:03;2.03;;;0.90;;
13432;SDS011;6789;47.678;9.158;2023-08-08T07:40:56;1.60;;;0.75;;
13432;SDS011;6789;47.678;9.158;2023-08-08T07:45:49;2.05;;;1.02;;
13432;SDS011;6789;47.678;9.158;2023-08-08T07:50:41;1.15;;;0.90;;
13432;SDS011;6789;47.678;9.158;2023-08-08T07:55:33;1.73;;;1.00;;
13432;SDS011;6789;47.678;9.158;2023-08-08T08:00:26;2.40;;;0.90;;
13432;SDS011;6789;47.678;9.158;2023-08-08T08:05:20;2.60;;;1.08;;
13432;SDS011;6789;47.678;9.158;2023-08-08T08:10:13;1.38;;;0.85;;
13432;SDS011;6789;47.678;9.158;2023-08-08T08:15:10;2.03;;;1.00;;
13432;SDS011;6789;47.678;9.158;2023-08-08T08:20:03;1.83;;;1.10;;
13432;SDS011;6789;47.678;9.158;2023-08-08T08:25:00;1.17;;;0.95;;
13432;SDS011;6789;47.678;9.158;2023-08-08T08:29:53;1.80;;;1.00;;
13432;SDS011;6789;47.678;9.158;2023-08-08T08:34:45;2.63;;;1.05;;
13432;SDS011;6789;47.678;9.158;2023-08-08T08:39:51;1.20;;;0.98;;
13432;SDS011;6789;47.678;9.158;2023-08-08T08:44:43;1.70;;;0.90;;
13432;SDS011;6789;47.678;9.158;2023-08-08T08:49:39;1.60;;;1.10;;
13432;SDS011;6789;47.678;9.158;2023-08-08T08:54:38;2.80;;;1.15;;
13432;SDS011;6789;47.678;9.158;2023-08-08T08:59:43;2.03;;;1.00;;
13432;SDS011;6789;47.678;9.158;2023-08-08T09:04:35;2.83;;;1.10;;
13432;SDS011;6789;47.678;9.158;2023-08-08T09:09:31;1.77;;;1.17;;
13432;SDS011;6789;47.678;9.158;2023-08-08T09:14:24;1.95;;;1.13;;
13432;SDS011;6789;47.678;9.158;2023-08-08T09:19:18;1.02;;;0.90;;
13432;SDS011;6789;47.678;9.158;2023-08-08T09:24:13;0.85;;;0.80;;
13432;SDS011;6789;47.678;9.158;2023-08-08T09:29:07;1.10;;;1.00;;
13432;SDS011;6789;47.678;9.158;2023-08-08T09:34:06;1.60;;;1.10;;
13432;SDS011;6789;47.678;9.158;2023-08-08T09:38:59;1.45;;;1.35;;
13432;SDS011;6789;47.678;9.158;2023-08-08T09:43:54;1.10;;;1.00;;
13432;SDS011;6789;47.678;9.158;2023-08-08T09:48:46;1.10;;;1.00;;
13432;SDS011;6789;47.678;9.158;2023-08-08T09:53:38;1.10;;;0.90;;
13432;SDS011;6789;47.678;9.158;2023-08-08T09:58:33;2.15;;;0.63;;
13432;SDS011;6789;47.678;9.158;2023-08-08T10:03:26;1.85;;;1.08;;
13432;SDS011;6789;47.678;9.158;2023-08-08T10:08:33;1.77;;;1.00;;
13432;SDS011;6789;47.678;9.158;2023-08-08T10:13:34;1.15;;;1.05;;
13432;SDS011;6789;47.678;9.158;2023-08-08T10:18:41;1.08;;;0.93;;
13432;SDS011;6789;47.678;9.158;2023-08-08T10:23:48;0.80;;;0.73;;
13432;SDS011;6789;47.678;9.158;2023-08-08T10:28:55;1.98;;;1.10;;
13432;SDS011;6789;47.678;9.158;2023-08-08T10:34:00;1.75;;;1.02;;
13432;SDS011;6789;47.678;9.158;2023-08-08T10:38:57;1.38;;;0.80;;
13432;SDS011;6789;47.678;9.158;2023-08-08T10:43:51;1.45;;;1.13;;
13432;SDS011;6789;47.678;9.158;2023-08-08T10:49:04;1.67;;;0.93;;
13432;SDS011;6789;47.678;9.158;2023-08-08T10:54:22;1.27;;;1.02;;
13432;SDS011;6789;47.678;9.158;2023-08-08T10:59:20;1.60;;;1.00;;
13432;SDS011;6789;47.678;9.158;2023-08-08T11:04:20;1.33;;;0.80;;
13432;SDS011;6789;47.678;9.158;2023-08-08T11:09:20;1.40;;;0.80;;
13432;SDS011;6789;47.678;9.158;2023-08-08T11:14:17;1.10;;;0.90;;
13432;SDS011;6789;47.678;9.158;2023-08-08T11:19:13;1.40;;;1.00;;
13432;SDS011;6789;47.678;9.158;2023-08-08T11:24:07;1.70;;;1.08;;
13432;SDS011;6789;47.678;9.158;2023-08-08T11:29:02;1.70;;;1.05;;
13432;SDS011;6789;47.678;9.158;2023-08-08T11:33:58;1.15;;;0.90;;
13432;SDS011;6789;47.678;9.158;2023-08-08T11:38:53;1.63;;;1.10;;
13432;SDS011;6789;47.678;9.158;2023-08-08T11:43:46;2.17;;;1.00;;
13432;SDS011;6789;47.678;9.158;2023-08-08T11:48:53;1.85;;;1.08;;
13432;SDS011;6789;47.678;9.158;2023-08-08T11:53:49;1.00;;;0.80;;
13432;SDS011;6789;47.678;9.158;2023-08-08T11:58:43;1.48;;;1.08;;
13432;SDS011;6789;47.678;9.158;2023-08-08T12:03:35;1.90;;;0.90;;
13432;SDS011;6789;47.678;9.158;2023-08-08T12:08:30;0.95;;;0.88;;
13432;SDS011;6789;47.678;9.158;2023-08-08T12:13:23;2.78;;;1.30;;
13432;SDS011;6789;47.678;9.158;2023-08-08T12:18:24;1.40;;;1.30;;
13432;SDS011;6789;47.678;9.158;2023-08-08T12:23:16;1.38;;;0.85;;
13432;SDS011;6789;47.678;9.158;2023-08-08T12:28:08;1.30;;;0.70;;
13432;SDS011;6789;47.678;9.158;2023-08-08T12:33:13;1.20;;;0.95;;
13432;SDS011;6789;47.678;9.158;2023-08-08T12:38:05;2.47;;;1.10;;
13432;SDS011;6789;47.678;9.158;2023-08-08T12:42:58;1.30;;;0.80;;
13432;SDS011;6789;47.678;9.158;2023-08-08T12:48:04;1.48;;;0.93;;
13432;SDS011;6789;47.678;9.158;2023-08-08T12:52:56;0.80;;;0.80;;
13432;SDS011;6789;47.678;9.158;2023-08-08T12:57:48;1.35;;;1.10;;
13432;SDS011;6789;47.678;9.158;2023-08-08T13:02:49;0.95;;;0.95;;
13432;SDS011;6789;47.678;9.158;2023-08-08T13:07:45;1.42;;;0.90;;
13432;SDS011;6789;47.678;9.158;2023-08-08T13:12:37;1.30;;;1.15;;
13432;SDS011;6789;47.678;9.158;2023-08-08T13:17:34;1.67;;;1.20;;
13432;SDS011;6789;47.678;9.158;2023-08-08T13:22:39;3.58;;;1.55;;
13432;SDS011;6789;47.678;9.158;2023-08-08T13:27:38;4.97;;;1.05;;
13432;SDS011;6789;47.678;9.158;2023-08-08T13:32:30;2.13;;;1.15;;
13432;SDS011;6789;47.678;9.158;2023-08-08T13:37:22;1.92;;;1.33;;
13432;SDS011;6789;47.678;9.158;2023-08-08T13:42:19;1.30;;;1.00;;
13432;SDS011;6789;47.678;9.158;2023-08-08T13:47:12;1.80;;;1.33;;
13432;SDS011;6789;47.678;9.158;2023-08-08T13:52:08;1.60;;;1.05;;
13432;SDS011;6789;47.678;9.158;2023-08-08T13:57:02;1.30;;;1.20;;
13432;SDS011;6789;47.678;9.158;2023-08-08T14:01:55;1.30;;;1.20;;
13432;SDS011;6789;47.678;9.158;2023-08-08T14:06:48;1.20;;;1.10;;
13432;SDS011;6789;47.678;9.158;2023-08-08T14:11:55;0.98;;;0.90;;
13432;SDS011;6789;47.678;9.158;2023-08-08T14:16:49;3.25;;;1.40;;
13432;SDS011;6789;47.678;9.158;2023-08-08T14:21:43;1.20;;;1.00;;
13432;SDS011;6789;47.678;9.158;2023-08-08T14:26:44;1.92;;;1.15;;
13432;SDS011;6789;47.678;9.158;2023-08-08T14:31:52;1.75;;;1.17;;
13432;SDS011;6789;47.678;9.158;2023-08-08T14:36:58;0.82;;;0.82;;
13432;SDS011;6789;47.678;9.158;2023-08-08T14:41:53;1.17;;;1.05;;
13432;SDS011;6789;47.678;9.158;2023-08-08T14:46:45;1.42;;;1.10;;
13432;SDS011;6789;47.678;9.158;2023-08-08T14:51:38;1.67;;;1.15;;
13432;SDS011;6789;47.678;9.158;2023-08-08T14:56:30;2.20;;;1.10;;
13432;SDS011;6789;47.678;9.158;2023-08-08T15:01:22;1.67;;;1.27;;
13432;SDS011;6789;47.678;9.158;2023-08-08T15:06:15;1.77;;;1.00;;
13432;SDS011;6789;47.678;9.158;2023-08-08T15:11:09;1.67;;;1.08;;
13432;SDS011;6789;47.678;9.158;2023-08-08T15:16:17;1.88;;;1.20;;
13432;SDS011;6789;47.678;9.158;2023-08-08T15:21:10;1.15;;;1.00;;
13432;SDS011;6789;47.678;9.158;2023-08-08T15:26:13;1.75;;;1.10;;
13432;SDS011;6789;47.678;9.158;2023-08-08T15:31:09;2.00;;;1.10;;
13432;SDS011;6789;47.678;9.158;2023-08-08T15:36:01;1.13;;;1.00;;
13432;SDS011;6789;47.678;9.158;2023-08-08T15:40:54;1.50;;;1.00;;
13432;SDS011;6789;47.678;9.158;2023-08-08T15:45:45;3.28;;;0.90;;
13432;SDS011;6789;47.678;9.158;2023-08-08T15:50:37;1.38;;;1.10;;
13432;SDS011;6789;47.678;9.158;2023-08-08T15:55:31;1.00;;;0.90;;
13432;SDS011;6789;47.678;9.158;2023-08-08T16:00:24;1.67;;;1.08;;
13432;SDS011;6789;47.678;9.158;2023-08-08T16:05:20;1.70;;;1.10;;
13432;SDS011;6789;47.678;9.158;2023-08-08T16:10:26;1.58;;;1.00;;
13432;SDS011;6789;47.678;9.158;2023-08-08T16:15:18;1.10;;;1.00;;
13432;SDS011;6789;47.678;9.158;2023-08-08T16:20:11;2.65;;;1.30;;
13432;SDS011;6789;47.678;9.158;2023-08-08T16:25:03;1.67;;;1.13;;
13432;SDS011;6789;47.678;9.158;2023-08-08T16:29:58;2.20;;;1.02;;
13432;SDS011;6789;47.678;9.158;2023-08-08T16:34:54;1.73;;;1.00;;
13432;SDS011;6789;47.678;9.158;2023-08-08T16:39:49;1.88;;;1.20;;
13432;SDS011;6789;47.678;9.158;2023-08-08T16:44:41;1.45;;;1.02;;
13432;SDS011;6789;47.678;9.158;2023-08-08T16:49:47;1.33;;;1.23;;
13432;SDS011;6789;47.678;9.158;2023-08-08T16:54:39;1.48;;;1.20;;
13432;SDS011;6789;47.678;9.158;2023-08-08T16:59:32;2.17;;;1.10;;
13432;SDS011;6789;47.678;9.158;2023-08-08T17:04:24;2.47;;;1.13;;
13432;SDS011;6789;47.678;9.158;2023-08-08T17:09:16;1.20;;;1.00;;
13432;SDS011;6789;47.678;9.158;2023-08-08T17:14:08;1.52;;;1.10;;
13432;SDS011;6789;47.678;9.158;2023-08-08T17:19:01;1.77;;;1.00;;
13432;SDS011;6789;47.678;9.158;2023-08-08T17:23:55;2.55;;;1.30;;
13432;SDS011;6789;47.678;9.158;2023-08-08T17:28:47;1.58;;;1.20;;
13432;SDS011;6789;47.678;9.158;2023-08-08T17:33:41;3.35;;;1.23;;
13432;SDS011;6789;47.678;9.158;2023-08-08T17:38:37;1.88;;;1.35;;
13432;SDS011;6789;47.678;9.158;2023-08-08T17:43:29;2.97;;;1.15;;
13432;SDS011;6789;47.678;9.158;2023-08-08T17:48:31;4.85;;;1.23;;
13432;SDS011;6789;47.678;9.158;2023-08-08T17:53:24;0.80;;;0.80;;
13432;SDS011;6789;47.678;9.158;2023-08-08T17:58:17;2.05;;;1.20;;
13432;SDS011;6789;47.678;9.158;2023-08-08T18:03:10;1.75;;;1.00;;
13432;SDS011;6789;47.678;9.158;2023-08-08T18:08:02;1.88;;;1.30;;
13432;SDS011;6789;47.678;9.158;2023-08-08T18:12:56;1.88;;;1.20;;
13432;SDS011;6789;47.678;9.158;2023-08-08T18:17:48;1.98;;;1.10;;
13432;SDS011;6789;47.678;9.158;2023-08-08T18:22:40;2.55;;;1.30;;
13432;SDS011;6789;47.678;9.158;2023-08-08T18:27:33;2.55;;;1.10;;
13432;SDS011;6789;47.678;9.158;2023-08-08T18:32:25;1.48;;;1.20;;
13432;SDS011;6789;47.678;9.158;2023-08-08T18:37:18;1.77;;;1.27;;
13432;SDS011;6789;47.678;9.158;2023-08-08T18:42:11;1.73;;;1.10;;
13432;SDS011;6789;47.678;9.158;2023-08-08T18:47:03;2.75;;;1.38;;
13432;SDS011;6789;47.678;9.158;2023-08-08T18:51:55;2.53;;;1.17;;
13432;SDS011;6789;47.678;9.158;2023-08-08T18:56:55;2.60;;;1.20;;
13432;SDS011;6789;47.678;9.158;2023-08-08T19:01:47;2.65;;;1.98;;
13432;SDS011;6789;47.678;9.158;2023-08-08T19:06:39;2.03;;;1.13;;
13432;SDS011;6789;47.678;9.158;2023-08-08T19:11:31;2.22;;;1.33;;
13432;SDS011;6789;47.678;9.158;2023-08-08T19:16:38;2.25;;;1.38;;
13432;SDS011;6789;47.678;9.158;2023-08-08T19:21:54;2.13;;;1.30;;
13432;SDS011;6789;47.678;9.158;2023-08-08T19:26:48;2.35;;;1.20;;
13432;SDS011;6789;47.678;9.158;2023-08-08T19:31:52;1.35;;;1.05;;
13432;SDS011;6789;47.678;9.158;2023-08-08T19:36:44;1.42;;;1.17;;
13432;SDS011;6789;47.678;9.158;2023-08-08T19:41:36;4.65;;;1.58;;
13432;SDS011;6789;47.678;9.158;2023-08-08T19:46:28;3.05;;;1.30;;
13432;SDS011;6789;47.678;9.158;2023-08-08T19:51:20;2.42;;;1.38;;
13432;SDS011;6789;47.678;9.158;2023-08-08T19:56:11;2.00;;;1.25;;
13432;SDS011;6789;47.678;9.158;2023-08-08T20:01:03;2.08;;;1.48;;
13432;SDS011;6789;47.678;9.158;2023-08-08T20:05:56;1.98;;;1.40;;
13432;SDS011;6789;47.678;9.158;2023-08-08T20:10:47;1.38;;;1.27;;
13432;SDS011;6789;47.678;9.158;2023-08-08T20:15:39;1.45;;;1.30;;
13432;SDS011;6789;47.678;9.158;2023-08-08T20:20:31;2.20;;;1.65;;
13432;SDS011;6789;47.678;9.158;2023-08-08T20:25:24;3.15;;;1.50;;
13432;SDS011;6789;47.678;9.158;2023-08-08T20:30:15;2.35;;;1.52;;
13432;SDS011;6789;47.678;9.158;2023-08-08T20:35:08;2.38;;;1.40;;
13432;SDS011;6789;47.678;9.158;2023-08-08T20:40:03;1.75;;;1.42;;
13432;SDS011;6789;47.678;9.158;2023-08-08T20:44:56;2.95;;;1.70;;
13432;SDS011;6789;47.678;9.158;2023-08-08T20:49:48;4.15;;;1.70;;
13432;SDS011;6789;47.678;9.158;2023-08-08T20:54:42;3.15;;;1.85;;
13432;SDS011;6789;47.678;9.158;2023-08-08T20:59:34;4.85;;;2.13;;
13432;SDS011;6789;47.678;9.158;2023-08-08T21:04:26;3.35;;;2.13;;
13432;SDS011;6789;47.678;9.158;2023-08-08T21:09:18;4.05;;;1.75;;
13432;SDS011;6789;47.678;9.158;2023-08-08T21:14:10;2.70;;;2.05;;
13432;SDS011;6789;47.678;9.158;2023-08-08T21:19:16;3.50;;;1.88;;
13432;SDS011;6789;47.678;9.158;2023-08-08T21:24:08;3.35;;;1.73;;
13432;SDS011;6789;47.678;9.158;2023-08-08T21:29:00;3.75;;;1.60;;
13432;SDS011;6789;47.678;9.158;2023-08-08T21:33:53;2.80;;;1.90;;
13432;SDS011;6789;47.678;9.158;2023-08-08T21:38:45;2.03;;;1.80;;
13432;SDS011;6789;47.678;9.158;2023-08-08T21:43:37;2.10;;;1.40;;
13432;SDS011;6789;47.678;9.158;2023-08-08T21:48:32;1.70;;;1.60;;
13432;SDS011;6789;47.678;9.158;2023-08-08T21:53:24;2.00;;;1.40;;
13432;SDS011;6789;47.678;9.158;2023-08-08T21:58:16;2.03;;;1.63;;
13432;SDS011;6789;47.678;9.158;2023-08-08T22:03:08;1.65;;;1.45;;
13432;SDS011;6789;47.678;9.158;2023-08-08T22:08:00;2.65;;;2.00;;
13432;SDS011;6789;47.678;9.158;2023-08-08T22:12:53;2.70;;;1.40;;
13432;SDS011;6789;47.678;9.158;2023-08-08T22:17:45;1.95;;;1.63;;
13432;SDS011;6789;47.678;9.158;2023-08-08T22:22:55;2.97;;;1.90;;
13432;SDS011;6789;47.678;9.158;2023-08-08T22:27:59;3.40;;;2.20;;
13432;SDS011;6789;47.678;9.158;2023-08-08T22:32:51;2.60;;;1.90;;
13432;SDS011;6789;47.678;9.158;2023-08-08T22:37:45;3.38;;;2.00;;
13432;SDS011;6789;47.678;9.158;2023-08-08T22:42:37;3.00;;;1.80;;
13432;SDS011;6789;47.678;9.158;2023-08-08T22:47:30;2.58;;;2.08;;
13432;SDS011;6789;47.678;9.158;2023-08-08T22:52:22;4.80;;;1.90;;
13432;SDS011;6789;47.678;9.158;2023-08-08T22:57:14;4.13;;;1.80;;
13432;SDS011;6789;47.678;9.158;2023-08-08T23:02:07;2.33;;;1.55;;
13432;SDS011;6789;47.678;9.158;2023-08-08T23:07:00;2.30;;;1.50;;
13432;SDS011;6789;47.678;9.158;2023-08-08T23:11:54;3.40;;;1.70;;
13432;SDS011;6789;47.678;9.158;2023-08-08T23:16:47;2.55;;;1.40;;
13432;SDS011;6789;47.678;9.158;2023-08-08T23:21:42;2.58;;;1.50;;
13432;SDS011;6789;47.678;9.158;2023-08-08T23:26:34;1.98;;;1.70;;
13432;SDS011;6789;47.678;9.158;2023-08-08T23:31:29;1.65;;;1.25;;
13432;SDS011;6789;47.678;9.158;2023-08-08T23:36:22;2.47;;;1.85;;
13432;SDS011;6789;47.678;9.158;2023-08-08T23:41:15;3.58;;;1.92;;
13432;SDS011;6789;47.678;9.158;2023-08-08T23:46:08;2.67;;;1.90;;
13432;SDS011;6789;47.678;9.158;2023-08-08T23:51:01;2.88;;;1.70;;
13432;SDS011;6789;47.678;9.158;2023-08-08T23:55:54;3.70;;;1.67;;
